sensor_id;sensor_type;location;lat;lon;timestamp;P1;durP1;ratioP1;P2;durP2;ratioP2
14619;SDS011;32125;48.518;9.050;2023-04-24T00:00:05;2.10;;;1.10;;
14619;SDS011;32125;48.518;9.050;2023-04-24T00:02:34;1.93;;;0.90;;
14619;SDS011;32125;48.518;9.050;2023-04-24T00:05:02;2.33;;;0.80;;
14619;SDS011;32125;48.518;9.050;2023-04-24T00:07:29;0.93;;;0.90;;
14619;SDS011;32125;48.518;9.050;2023-04-24T00:09:57;1.07;;;0.70;;
14619;SDS011;32125;48.518;9.050;2023-04-24T00:12:24;1.10;;;0.80;;
14619;SDS011;32125;48.518;9.050;2023-04-24T00:14:50;2.40;;;0.70;;
14619;SDS011;32125;48.518;9.050;2023-04-24T00:17:16;0.90;;;0.70;;
14619;SDS011;32125;48.518;9.050;2023-04-24T00:19:51;0.67;;;0.67;;
14619;SDS011;32125;48.518;9.050;2023-04-24T00:22:23;1.03;;;0.90;;
14619;SDS011;32125;48.518;9.050;2023-04-24T00:24:49;1.43;;;0.60;;
14619;SDS011;32125;48.518;9.050;2023-04-24T00:27:15;1.20;;;0.70;;
14619;SDS011;32125;48.518;9.050;2023-04-24T00:29:41;1.80;;;0.87;;
14619;SDS011;32125;48.518;9.050;2023-04-24T00:32:07;0.90;;;0.77;;
14619;SDS011;32125;48.518;9.050;2023-04-24T00:34:33;1.03;;;0.90;;
14619;SDS011;32125;48.518;9.050;2023-04-24T00:36:59;0.70;;;0.70;;
14619;SDS011;32125;48.518;9.050;2023-04-24T00:39:25;2.10;;;0.90;;
14619;SDS011;32125;48.518;9.050;2023-04-24T00:41:51;1.07;;;0.83;;
14619;SDS011;32125;48.518;9.050;2023-04-24T00:44:18;1.57;;;0.90;;
14619;SDS011;32125;48.518;9.050;2023-04-24T00:46:44;1.70;;;1.00;;
14619;SDS011;32125;48.518;9.050;2023-04-24T00:49:12;0.90;;;0.90;;
14619;SDS011;32125;48.518;9.050;2023-04-24T00:51:38;2.10;;;0.97;;
14619;SDS011;32125;48.518;9.050;2023-04-24T00:54:05;0.80;;;0.80;;
14619;SDS011;32125;48.518;9.050;2023-04-24T00:56:31;3.70;;;0.93;;
14619;SDS011;32125;48.518;9.050;2023-04-24T00:58:58;1.00;;;0.90;;
14619;SDS011;32125;48.518;9.050;2023-04-24T01:01:24;1.23;;;0.87;;
14619;SDS011;32125;48.518;9.050;2023-04-24T01:03:53;2.17;;;0.93;;
14619;SDS011;32125;48.518;9.050;2023-04-24T01:06:19;2.10;;;0.90;;
14619;SDS011;32125;48.518;9.050;2023-04-24T01:08:45;1.13;;;1.00;;
14619;SDS011;32125;48.518;9.050;2023-04-24T01:11:12;2.13;;;1.00;;
14619;SDS011;32125;48.518;9.050;2023-04-24T01:13:38;1.70;;;1.10;;
14619;SDS011;32125;48.518;9.050;2023-04-24T01:16:05;1.57;;;1.00;;
14619;SDS011;32125;48.518;9.050;2023-04-24T01:18:32;1.93;;;1.30;;
14619;SDS011;32125;48.518;9.050;2023-04-24T01:20:58;2.53;;;1.20;;
14619;SDS011;32125;48.518;9.050;2023-04-24T01:23:25;1.77;;;1.00;;
14619;SDS011;32125;48.518;9.050;2023-04-24T01:25:52;1.60;;;1.10;;
14619;SDS011;32125;48.518;9.050;2023-04-24T01:28:18;2.90;;;1.30;;
14619;SDS011;32125;48.518;9.050;2023-04-24T01:30:44;2.60;;;1.20;;
14619;SDS011;32125;48.518;9.050;2023-04-24T01:33:11;2.10;;;1.20;;
14619;SDS011;32125;48.518;9.050;2023-04-24T01:35:37;1.37;;;1.00;;
14619;SDS011;32125;48.518;9.050;2023-04-24T01:38:03;3.13;;;1.30;;
14619;SDS011;32125;48.518;9.050;2023-04-24T01:40:30;1.47;;;1.30;;
14619;SDS011;32125;48.518;9.050;2023-04-24T01:42:56;2.23;;;1.30;;
14619;SDS011;32125;48.518;9.050;2023-04-24T01:45:23;3.00;;;1.40;;
14619;SDS011;32125;48.518;9.050;2023-04-24T01:47:49;3.10;;;1.20;;
14619;SDS011;32125;48.518;9.050;2023-04-24T01:50:15;4.00;;;1.27;;
14619;SDS011;32125;48.518;9.050;2023-04-24T01:52:41;2.53;;;1.30;;
14619;SDS011;32125;48.518;9.050;2023-04-24T01:55:07;1.70;;;1.10;;
14619;SDS011;32125;48.518;9.050;2023-04-24T01:57:34;2.40;;;1.10;;
14619;SDS011;32125;48.518;9.050;2023-04-24T02:00:00;1.30;;;1.20;;
14619;SDS011;32125;48.518;9.050;2023-04-24T02:02:26;1.27;;;1.13;;
14619;SDS011;32125;48.518;9.050;2023-04-24T02:04:53;2.13;;;1.30;;
14619;SDS011;32125;48.518;9.050;2023-04-24T02:07:19;1.30;;;1.20;;
14619;SDS011;32125;48.518;9.050;2023-04-24T02:09:45;1.30;;;1.07;;
14619;SDS011;32125;48.518;9.050;2023-04-24T02:12:12;2.47;;;1.30;;
14619;SDS011;32125;48.518;9.050;2023-04-24T02:14:38;1.30;;;1.20;;
14619;SDS011;32125;48.518;9.050;2023-04-24T02:17:03;1.90;;;1.30;;
14619;SDS011;32125;48.518;9.050;2023-04-24T02:19:32;4.27;;;1.40;;
14619;SDS011;32125;48.518;9.050;2023-04-24T02:21:58;2.63;;;1.37;;
14619;SDS011;32125;48.518;9.050;2023-04-24T02:24:24;4.40;;;1.40;;
14619;SDS011;32125;48.518;9.050;2023-04-24T02:26:50;2.80;;;1.60;;
14619;SDS011;32125;48.518;9.050;2023-04-24T02:29:16;1.37;;;1.27;;
14619;SDS011;32125;48.518;9.050;2023-04-24T02:31:42;3.03;;;1.60;;
14619;SDS011;32125;48.518;9.050;2023-04-24T02:34:08;3.70;;;1.57;;
14619;SDS011;32125;48.518;9.050;2023-04-24T02:36:37;1.90;;;1.50;;
14619;SDS011;32125;48.518;9.050;2023-04-24T02:39:03;1.60;;;1.50;;
14619;SDS011;32125;48.518;9.050;2023-04-24T02:41:29;5.30;;;1.50;;
14619;SDS011;32125;48.518;9.050;2023-04-24T02:43:57;2.97;;;1.87;;
14619;SDS011;32125;48.518;9.050;2023-04-24T02:46:24;2.03;;;1.63;;
14619;SDS011;32125;48.518;9.050;2023-04-24T02:48:54;2.07;;;1.40;;
14619;SDS011;32125;48.518;9.050;2023-04-24T02:51:20;2.90;;;1.50;;
14619;SDS011;32125;48.518;9.050;2023-04-24T02:53:47;1.50;;;1.40;;
14619;SDS011;32125;48.518;9.050;2023-04-24T02:56:13;2.00;;;1.37;;
14619;SDS011;32125;48.518;9.050;2023-04-24T02:58:39;2.83;;;1.40;;
14619;SDS011;32125;48.518;9.050;2023-04-24T03:01:07;3.47;;;1.00;;
14619;SDS011;32125;48.518;9.050;2023-04-24T03:03:34;2.97;;;1.20;;
14619;SDS011;32125;48.518;9.050;2023-04-24T03:06:03;3.10;;;1.20;;
14619;SDS011;32125;48.518;9.050;2023-04-24T03:08:30;1.33;;;1.10;;
14619;SDS011;32125;48.518;9.050;2023-04-24T03:10:56;3.73;;;1.50;;
14619;SDS011;32125;48.518;9.050;2023-04-24T03:13:22;1.97;;;1.10;;
14619;SDS011;32125;48.518;9.050;2023-04-24T03:15:51;1.30;;;1.20;;
14619;SDS011;32125;48.518;9.050;2023-04-24T03:18:17;2.33;;;1.20;;
14619;SDS011;32125;48.518;9.050;2023-04-24T03:20:45;2.33;;;1.40;;
14619;SDS011;32125;48.518;9.050;2023-04-24T03:23:12;2.20;;;1.20;;
14619;SDS011;32125;48.518;9.050;2023-04-24T03:25:38;1.90;;;1.20;;
14619;SDS011;32125;48.518;9.050;2023-04-24T03:28:07;1.40;;;1.30;;
14619;SDS011;32125;48.518;9.050;2023-04-24T03:30:36;1.63;;;1.40;;
14619;SDS011;32125;48.518;9.050;2023-04-24T03:33:02;2.63;;;1.53;;
14619;SDS011;32125;48.518;9.050;2023-04-24T03:35:28;1.97;;;1.40;;
14619;SDS011;32125;48.518;9.050;2023-04-24T03:37:54;3.13;;;1.53;;
14619;SDS011;32125;48.518;9.050;2023-04-24T03:40:20;3.83;;;1.60;;
14619;SDS011;32125;48.518;9.050;2023-04-24T03:42:46;2.00;;;1.70;;
14619;SDS011;32125;48.518;9.050;2023-04-24T03:45:15;2.70;;;1.50;;
14619;SDS011;32125;48.518;9.050;2023-04-24T03:47:41;2.20;;;1.53;;
14619;SDS011;32125;48.518;9.050;2023-04-24T03:50:07;3.07;;;1.80;;
14619;SDS011;32125;48.518;9.050;2023-04-24T03:52:33;1.70;;;1.53;;
14619;SDS011;32125;48.518;9.050;2023-04-24T03:55:00;4.00;;;1.47;;
14619;SDS011;32125;48.518;9.050;2023-04-24T03:57:26;3.77;;;1.80;;
14619;SDS011;32125;48.518;9.050;2023-04-24T03:59:52;2.73;;;1.83;;
14619;SDS011;32125;48.518;9.050;2023-04-24T04:02:18;3.13;;;1.73;;
14619;SDS011;32125;48.518;9.050;2023-04-24T04:04:44;3.67;;;1.70;;
14619;SDS011;32125;48.518;9.050;2023-04-24T04:07:13;2.27;;;1.63;;
14619;SDS011;32125;48.518;9.050;2023-04-24T04:09:39;2.40;;;1.50;;
14619;SDS011;32125;48.518;9.050;2023-04-24T04:12:05;1.93;;;1.40;;
14619;SDS011;32125;48.518;9.050;2023-04-24T04:59:36;2.77;;;1.13;;
14619;SDS011;32125;48.518;9.050;2023-04-24T05:02:02;3.87;;;1.50;;
14619;SDS011;32125;48.518;9.050;2023-04-24T05:07:33;3.27;;;1.50;;
14619;SDS011;32125;48.518;9.050;2023-04-24T05:09:59;3.33;;;1.40;;
14619;SDS011;32125;48.518;9.050;2023-04-24T05:12:25;1.57;;;1.30;;
14619;SDS011;32125;48.518;9.050;2023-04-24T05:14:52;1.73;;;1.40;;
14619;SDS011;32125;48.518;9.050;2023-04-24T05:17:18;1.40;;;1.30;;
14619;SDS011;32125;48.518;9.050;2023-04-24T05:19:44;1.60;;;1.50;;
14619;SDS011;32125;48.518;9.050;2023-04-24T05:22:11;2.23;;;1.50;;
14619;SDS011;32125;48.518;9.050;2023-04-24T05:24:37;1.87;;;1.60;;
14619;SDS011;32125;48.518;9.050;2023-04-24T05:27:03;1.50;;;1.40;;
14619;SDS011;32125;48.518;9.050;2023-04-24T05:29:29;1.67;;;1.57;;
14619;SDS011;32125;48.518;9.050;2023-04-24T05:31:59;2.60;;;1.60;;
14619;SDS011;32125;48.518;9.050;2023-04-24T05:34:25;2.00;;;1.60;;
14619;SDS011;32125;48.518;9.050;2023-04-24T05:36:51;4.10;;;1.50;;
14619;SDS011;32125;48.518;9.050;2023-04-24T05:39:18;2.00;;;1.70;;
14619;SDS011;32125;48.518;9.050;2023-04-24T05:41:44;1.67;;;1.57;;
14619;SDS011;32125;48.518;9.050;2023-04-24T05:44:12;1.70;;;1.57;;
14619;SDS011;32125;48.518;9.050;2023-04-24T05:46:41;3.17;;;1.77;;
14619;SDS011;32125;48.518;9.050;2023-04-24T05:49:07;1.93;;;1.70;;
14619;SDS011;32125;48.518;9.050;2023-04-24T05:51:33;1.73;;;1.57;;
14619;SDS011;32125;48.518;9.050;2023-04-24T05:53:59;1.80;;;1.70;;
14619;SDS011;32125;48.518;9.050;2023-04-24T05:56:26;2.70;;;1.80;;
14619;SDS011;32125;48.518;9.050;2023-04-24T05:58:52;5.17;;;1.73;;
14619;SDS011;32125;48.518;9.050;2023-04-24T06:01:18;2.07;;;1.43;;
14619;SDS011;32125;48.518;9.050;2023-04-24T06:03:48;2.27;;;1.77;;
14619;SDS011;32125;48.518;9.050;2023-04-24T06:06:17;2.53;;;1.57;;
14619;SDS011;32125;48.518;9.050;2023-04-24T06:08:44;3.67;;;1.67;;
14619;SDS011;32125;48.518;9.050;2023-04-24T06:11:10;2.03;;;1.40;;
14619;SDS011;32125;48.518;9.050;2023-04-24T06:13:36;2.33;;;1.60;;
14619;SDS011;32125;48.518;9.050;2023-04-24T06:16:02;1.60;;;1.50;;
14619;SDS011;32125;48.518;9.050;2023-04-24T06:18:28;1.53;;;1.43;;
14619;SDS011;32125;48.518;9.050;2023-04-24T06:20:56;1.60;;;1.47;;
14619;SDS011;32125;48.518;9.050;2023-04-24T06:23:22;1.53;;;1.40;;
14619;SDS011;32125;48.518;9.050;2023-04-24T06:25:48;3.53;;;1.60;;
14619;SDS011;32125;48.518;9.050;2023-04-24T06:28:15;1.43;;;1.33;;
14619;SDS011;32125;48.518;9.050;2023-04-24T06:30:41;1.63;;;1.27;;
14619;SDS011;32125;48.518;9.050;2023-04-24T06:33:08;2.87;;;1.20;;
14619;SDS011;32125;48.518;9.050;2023-04-24T06:35:34;1.77;;;1.20;;
14619;SDS011;32125;48.518;9.050;2023-04-24T06:38:02;1.23;;;1.13;;
14619;SDS011;32125;48.518;9.050;2023-04-24T06:40:29;1.03;;;1.00;;
14619;SDS011;32125;48.518;9.050;2023-04-24T06:42:55;1.30;;;1.30;;
14619;SDS011;32125;48.518;9.050;2023-04-24T06:45:25;1.30;;;1.17;;
14619;SDS011;32125;48.518;9.050;2023-04-24T06:47:51;1.07;;;1.00;;
14619;SDS011;32125;48.518;9.050;2023-04-24T06:50:19;2.00;;;1.17;;
14619;SDS011;32125;48.518;9.050;2023-04-24T06:52:48;0.90;;;0.83;;
14619;SDS011;32125;48.518;9.050;2023-04-24T06:55:14;1.33;;;1.20;;
14619;SDS011;32125;48.518;9.050;2023-04-24T06:57:41;1.37;;;1.00;;
14619;SDS011;32125;48.518;9.050;2023-04-24T07:00:07;1.00;;;1.00;;
14619;SDS011;32125;48.518;9.050;2023-04-24T07:02:34;0.90;;;0.90;;
14619;SDS011;32125;48.518;9.050;2023-04-24T07:05:00;3.93;;;1.40;;
14619;SDS011;32125;48.518;9.050;2023-04-24T07:07:26;1.50;;;1.40;;
14619;SDS011;32125;48.518;9.050;2023-04-24T07:09:52;1.40;;;1.27;;
14619;SDS011;32125;48.518;9.050;2023-04-24T07:12:19;1.33;;;1.27;;
14619;SDS011;32125;48.518;9.050;2023-04-24T07:14:48;2.27;;;1.47;;
14619;SDS011;32125;48.518;9.050;2023-04-24T07:17:14;3.07;;;1.57;;
14619;SDS011;32125;48.518;9.050;2023-04-24T07:19:40;2.33;;;1.53;;
14619;SDS011;32125;48.518;9.050;2023-04-24T07:22:06;1.37;;;1.30;;
14619;SDS011;32125;48.518;9.050;2023-04-24T07:24:32;2.33;;;1.40;;
14619;SDS011;32125;48.518;9.050;2023-04-24T07:26:58;1.30;;;1.20;;
14619;SDS011;32125;48.518;9.050;2023-04-24T07:29:28;1.43;;;1.20;;
14619;SDS011;32125;48.518;9.050;2023-04-24T07:31:54;1.37;;;1.20;;
14619;SDS011;32125;48.518;9.050;2023-04-24T07:34:25;1.47;;;1.10;;
14619;SDS011;32125;48.518;9.050;2023-04-24T07:36:51;1.27;;;1.00;;
14619;SDS011;32125;48.518;9.050;2023-04-24T07:39:20;1.20;;;1.00;;
14619;SDS011;32125;48.518;9.050;2023-04-24T07:41:46;1.13;;;1.10;;
14619;SDS011;32125;48.518;9.050;2023-04-24T07:44:12;2.17;;;1.20;;
14619;SDS011;32125;48.518;9.050;2023-04-24T07:46:38;1.40;;;1.30;;
14619;SDS011;32125;48.518;9.050;2023-04-24T07:49:04;2.23;;;1.40;;
14619;SDS011;32125;48.518;9.050;2023-04-24T07:51:30;1.30;;;1.20;;
14619;SDS011;32125;48.518;9.050;2023-04-24T07:53:57;1.97;;;1.30;;
14619;SDS011;32125;48.518;9.050;2023-04-24T07:56:23;1.87;;;1.10;;
14619;SDS011;32125;48.518;9.050;2023-04-24T07:58:51;2.67;;;1.23;;
14619;SDS011;32125;48.518;9.050;2023-04-24T08:01:17;1.13;;;1.10;;
14619;SDS011;32125;48.518;9.050;2023-04-24T08:03:45;1.47;;;1.30;;
14619;SDS011;32125;48.518;9.050;2023-04-24T08:06:11;1.93;;;1.40;;
14619;SDS011;32125;48.518;9.050;2023-04-24T08:08:40;1.40;;;1.30;;
14619;SDS011;32125;48.518;9.050;2023-04-24T08:11:06;1.33;;;1.10;;
14619;SDS011;32125;48.518;9.050;2023-04-24T08:13:32;1.60;;;1.20;;
14619;SDS011;32125;48.518;9.050;2023-04-24T08:16:01;3.87;;;1.37;;
14619;SDS011;32125;48.518;9.050;2023-04-24T08:18:29;1.47;;;1.30;;
14619;SDS011;32125;48.518;9.050;2023-04-24T08:20:57;2.63;;;1.30;;
14619;SDS011;32125;48.518;9.050;2023-04-24T08:23:26;2.00;;;1.33;;
14619;SDS011;32125;48.518;9.050;2023-04-24T08:25:53;1.43;;;1.33;;
14619;SDS011;32125;48.518;9.050;2023-04-24T08:28:21;1.77;;;1.33;;
14619;SDS011;32125;48.518;9.050;2023-04-24T08:30:47;1.43;;;1.20;;
14619;SDS011;32125;48.518;9.050;2023-04-24T08:33:17;1.87;;;1.33;;
14619;SDS011;32125;48.518;9.050;2023-04-24T08:35:43;1.40;;;1.30;;
14619;SDS011;32125;48.518;9.050;2023-04-24T08:38:15;1.23;;;1.13;;
14619;SDS011;32125;48.518;9.050;2023-04-24T08:40:53;1.30;;;1.20;;
14619;SDS011;32125;48.518;9.050;2023-04-24T08:43:25;1.70;;;1.20;;
14619;SDS011;32125;48.518;9.050;2023-04-24T08:45:56;3.97;;;1.60;;
14619;SDS011;32125;48.518;9.050;2023-04-24T08:48:25;1.55;;;1.20;;
14619;SDS011;32125;48.518;9.050;2023-04-24T08:50:53;1.52;;;1.30;;
14619;SDS011;32125;48.518;9.050;2023-04-24T08:53:31;2.30;;;1.20;;
14619;SDS011;32125;48.518;9.050;2023-04-24T08:55:58;2.92;;;1.10;;
14619;SDS011;32125;48.518;9.050;2023-04-24T08:58:31;1.30;;;1.20;;
14619;SDS011;32125;48.518;9.050;2023-04-24T09:00:57;1.95;;;0.98;;
14619;SDS011;32125;48.518;9.050;2023-04-24T09:03:24;1.25;;;1.13;;
14619;SDS011;32125;48.518;9.050;2023-04-24T09:05:50;2.35;;;1.08;;
14619;SDS011;32125;48.518;9.050;2023-04-24T09:08:17;2.10;;;1.00;;
14619;SDS011;32125;48.518;9.050;2023-04-24T09:10:43;1.70;;;1.20;;
14619;SDS011;32125;48.518;9.050;2023-04-24T09:13:12;3.22;;;1.10;;
14619;SDS011;32125;48.518;9.050;2023-04-24T09:15:39;1.33;;;1.10;;
14619;SDS011;32125;48.518;9.050;2023-04-24T09:21:13;1.13;;;1.00;;
14619;SDS011;32125;48.518;9.050;2023-04-24T09:23:40;1.92;;;1.40;;
14619;SDS011;32125;48.518;9.050;2023-04-24T09:26:09;3.17;;;1.17;;
14619;SDS011;32125;48.518;9.050;2023-04-24T09:28:36;2.10;;;1.23;;
14619;SDS011;32125;48.518;9.050;2023-04-24T09:31:12;1.30;;;1.20;;
14619;SDS011;32125;48.518;9.050;2023-04-24T09:33:56;1.77;;;1.30;;
14619;SDS011;32125;48.518;9.050;2023-04-24T09:36:35;1.93;;;1.40;;
14619;SDS011;32125;48.518;9.050;2023-04-24T09:39:31;1.87;;;1.27;;
14619;SDS011;32125;48.518;9.050;2023-04-24T09:41:57;2.60;;;1.30;;
14619;SDS011;32125;48.518;9.050;2023-04-24T09:44:25;2.27;;;1.33;;
14619;SDS011;32125;48.518;9.050;2023-04-24T09:46:53;1.33;;;1.20;;
14619;SDS011;32125;48.518;9.050;2023-04-24T09:51:50;1.67;;;1.30;;
14619;SDS011;32125;48.518;9.050;2023-04-24T09:54:18;1.90;;;1.10;;
14619;SDS011;32125;48.518;9.050;2023-04-24T09:56:46;2.53;;;1.50;;
14619;SDS011;32125;48.518;9.050;2023-04-24T09:59:23;5.50;;;1.47;;
14619;SDS011;32125;48.518;9.050;2023-04-24T10:02:16;1.30;;;1.20;;
14619;SDS011;32125;48.518;9.050;2023-04-24T10:04:55;2.13;;;1.20;;
14619;SDS011;32125;48.518;9.050;2023-04-24T10:07:21;2.17;;;1.38;;
14619;SDS011;32125;48.518;9.050;2023-04-24T10:09:49;2.58;;;1.15;;
14619;SDS011;32125;48.518;9.050;2023-04-24T10:12:15;2.35;;;1.25;;
14619;SDS011;32125;48.518;9.050;2023-04-24T10:14:41;1.98;;;1.10;;
14619;SDS011;32125;48.518;9.050;2023-04-24T10:17:10;1.33;;;1.10;;
14619;SDS011;32125;48.518;9.050;2023-04-24T10:19:36;2.47;;;1.10;;
14619;SDS011;32125;48.518;9.050;2023-04-24T10:22:03;1.25;;;0.90;;
14619;SDS011;32125;48.518;9.050;2023-04-24T10:24:29;2.03;;;1.10;;
14619;SDS011;32125;48.518;9.050;2023-04-24T10:27:00;1.08;;;1.00;;
14619;SDS011;32125;48.518;9.050;2023-04-24T10:29:27;0.90;;;0.90;;
14619;SDS011;32125;48.518;9.050;2023-04-24T10:31:55;2.33;;;1.07;;
14619;SDS011;32125;48.518;9.050;2023-04-24T10:34:21;1.60;;;1.10;;
14619;SDS011;32125;48.518;9.050;2023-04-24T10:36:48;1.67;;;1.10;;
14619;SDS011;32125;48.518;9.050;2023-04-24T10:39:16;1.83;;;1.10;;
14619;SDS011;32125;48.518;9.050;2023-04-24T10:41:42;1.83;;;1.00;;
14619;SDS011;32125;48.518;9.050;2023-04-24T10:44:12;1.63;;;1.10;;
14619;SDS011;32125;48.518;9.050;2023-04-24T10:46:42;1.20;;;0.90;;
14619;SDS011;32125;48.518;9.050;2023-04-24T10:49:09;1.07;;;1.03;;
14619;SDS011;32125;48.518;9.050;2023-04-24T10:51:48;2.67;;;1.13;;
14619;SDS011;32125;48.518;9.050;2023-04-24T10:54:29;1.57;;;1.10;;
14619;SDS011;32125;48.518;9.050;2023-04-24T11:02:55;1.93;;;1.10;;
14619;SDS011;32125;48.518;9.050;2023-04-24T11:05:22;1.20;;;1.10;;
14619;SDS011;32125;48.518;9.050;2023-04-24T11:10:33;1.93;;;1.27;;
14619;SDS011;32125;48.518;9.050;2023-04-24T11:12:59;1.83;;;1.00;;
14619;SDS011;32125;48.518;9.050;2023-04-24T11:15:27;3.67;;;1.00;;
14619;SDS011;32125;48.518;9.050;2023-04-24T11:17:54;1.83;;;0.90;;
14619;SDS011;32125;48.518;9.050;2023-04-24T11:20:22;2.37;;;1.00;;
14619;SDS011;32125;48.518;9.050;2023-04-24T11:22:52;1.87;;;1.20;;
14619;SDS011;32125;48.518;9.050;2023-04-24T11:25:19;1.77;;;0.93;;
14619;SDS011;32125;48.518;9.050;2023-04-24T11:27:47;1.17;;;0.90;;
14619;SDS011;32125;48.518;9.050;2023-04-24T11:30:17;1.00;;;0.90;;
14619;SDS011;32125;48.518;9.050;2023-04-24T11:32:47;1.73;;;0.73;;
14619;SDS011;32125;48.518;9.050;2023-04-24T11:37:45;1.10;;;1.10;;
14619;SDS011;32125;48.518;9.050;2023-04-24T11:40:12;1.30;;;1.07;;
14619;SDS011;32125;48.518;9.050;2023-04-24T11:42:39;0.97;;;0.90;;
14619;SDS011;32125;48.518;9.050;2023-04-24T11:45:08;0.73;;;0.70;;
14619;SDS011;32125;48.518;9.050;2023-04-24T11:47:36;0.77;;;0.77;;
14619;SDS011;32125;48.518;9.050;2023-04-24T11:50:05;0.63;;;0.63;;
14619;SDS011;32125;48.518;9.050;2023-04-24T11:52:38;0.83;;;0.83;;
14619;SDS011;32125;48.518;9.050;2023-04-24T11:55:22;1.47;;;1.00;;
14619;SDS011;32125;48.518;9.050;2023-04-24T11:57:52;2.87;;;1.00;;
14619;SDS011;32125;48.518;9.050;2023-04-24T12:00:22;1.00;;;1.00;;
14619;SDS011;32125;48.518;9.050;2023-04-24T12:02:49;1.33;;;1.13;;
14619;SDS011;32125;48.518;9.050;2023-04-24T12:05:21;1.23;;;1.10;;
14619;SDS011;32125;48.518;9.050;2023-04-24T12:07:47;1.03;;;0.93;;
14619;SDS011;32125;48.518;9.050;2023-04-24T12:10:14;2.40;;;1.03;;
14619;SDS011;32125;48.518;9.050;2023-04-24T12:12:40;1.23;;;1.03;;
14619;SDS011;32125;48.518;9.050;2023-04-24T12:15:07;1.20;;;1.03;;
14619;SDS011;32125;48.518;9.050;2023-04-24T12:17:33;0.80;;;0.80;;
14619;SDS011;32125;48.518;9.050;2023-04-24T12:20:03;1.60;;;1.00;;
14619;SDS011;32125;48.518;9.050;2023-04-24T12:25:11;0.97;;;0.90;;
14619;SDS011;32125;48.518;9.050;2023-04-24T12:27:37;0.70;;;0.70;;
14619;SDS011;32125;48.518;9.050;2023-04-24T12:30:04;0.87;;;0.87;;
14619;SDS011;32125;48.518;9.050;2023-04-24T12:32:30;1.10;;;1.00;;
14619;SDS011;32125;48.518;9.050;2023-04-24T12:34:57;1.53;;;1.10;;
14619;SDS011;32125;48.518;9.050;2023-04-24T12:37:24;1.17;;;1.00;;
14619;SDS011;32125;48.518;9.050;2023-04-24T12:42:26;1.00;;;1.00;;
14619;SDS011;32125;48.518;9.050;2023-04-24T12:45:03;1.13;;;1.10;;
14619;SDS011;32125;48.518;9.050;2023-04-24T12:47:30;3.50;;;1.30;;
14619;SDS011;32125;48.518;9.050;2023-04-24T12:49:56;2.03;;;1.30;;
14619;SDS011;32125;48.518;9.050;2023-04-24T12:52:22;1.37;;;1.17;;
14619;SDS011;32125;48.518;9.050;2023-04-24T12:54:49;1.57;;;1.20;;
14619;SDS011;32125;48.518;9.050;2023-04-24T12:57:18;1.30;;;1.20;;
14619;SDS011;32125;48.518;9.050;2023-04-24T12:59:46;1.20;;;1.10;;
14619;SDS011;32125;48.518;9.050;2023-04-24T13:02:12;1.70;;;1.20;;
14619;SDS011;32125;48.518;9.050;2023-04-24T13:04:39;1.97;;;1.50;;
14619;SDS011;32125;48.518;9.050;2023-04-24T13:07:05;1.83;;;1.07;;
14619;SDS011;32125;48.518;9.050;2023-04-24T13:09:31;2.10;;;1.13;;
14619;SDS011;32125;48.518;9.050;2023-04-24T13:11:58;1.97;;;1.33;;
14619;SDS011;32125;48.518;9.050;2023-04-24T13:14:24;2.33;;;1.20;;
14619;SDS011;32125;48.518;9.050;2023-04-24T13:16:50;1.47;;;1.30;;
14619;SDS011;32125;48.518;9.050;2023-04-24T13:19:16;1.27;;;1.17;;
14619;SDS011;32125;48.518;9.050;2023-04-24T13:21:42;2.20;;;1.23;;
14619;SDS011;32125;48.518;9.050;2023-04-24T13:24:08;1.50;;;1.33;;
14619;SDS011;32125;48.518;9.050;2023-04-24T13:26:35;1.47;;;1.30;;
14619;SDS011;32125;48.518;9.050;2023-04-24T13:29:01;1.40;;;1.30;;
14619;SDS011;32125;48.518;9.050;2023-04-24T13:31:30;1.50;;;1.40;;
14619;SDS011;32125;48.518;9.050;2023-04-24T13:33:56;1.97;;;1.27;;
14619;SDS011;32125;48.518;9.050;2023-04-24T13:36:22;1.10;;;1.07;;
14619;SDS011;32125;48.518;9.050;2023-04-24T13:38:49;1.33;;;1.10;;
14619;SDS011;32125;48.518;9.050;2023-04-24T13:41:15;1.67;;;1.30;;
14619;SDS011;32125;48.518;9.050;2023-04-24T13:43:41;1.67;;;1.17;;
14619;SDS011;32125;48.518;9.050;2023-04-24T13:46:10;1.23;;;1.13;;
14619;SDS011;32125;48.518;9.050;2023-04-24T13:48:38;2.80;;;1.30;;
14619;SDS011;32125;48.518;9.050;2023-04-24T13:51:05;2.70;;;1.30;;
14619;SDS011;32125;48.518;9.050;2023-04-24T13:53:31;1.70;;;1.20;;
14619;SDS011;32125;48.518;9.050;2023-04-24T13:56:00;1.13;;;1.03;;
14619;SDS011;32125;48.518;9.050;2023-04-24T13:58:27;1.40;;;1.30;;
14619;SDS011;32125;48.518;9.050;2023-04-24T14:00:53;1.10;;;1.00;;
14619;SDS011;32125;48.518;9.050;2023-04-24T14:03:19;1.40;;;1.30;;
14619;SDS011;32125;48.518;9.050;2023-04-24T14:05:45;1.93;;;1.27;;
14619;SDS011;32125;48.518;9.050;2023-04-24T14:08:13;3.23;;;1.40;;
14619;SDS011;32125;48.518;9.050;2023-04-24T14:10:39;2.50;;;1.40;;
14619;SDS011;32125;48.518;9.050;2023-04-24T14:13:08;1.33;;;1.00;;
14619;SDS011;32125;48.518;9.050;2023-04-24T14:15:35;1.53;;;1.40;;
14619;SDS011;32125;48.518;9.050;2023-04-24T14:18:03;1.50;;;1.40;;
14619;SDS011;32125;48.518;9.050;2023-04-24T14:20:30;1.67;;;1.20;;
14619;SDS011;32125;48.518;9.050;2023-04-24T14:22:56;2.40;;;1.30;;
14619;SDS011;32125;48.518;9.050;2023-04-24T14:25:28;1.40;;;1.30;;
14619;SDS011;32125;48.518;9.050;2023-04-24T14:27:54;1.60;;;1.47;;
14619;SDS011;32125;48.518;9.050;2023-04-24T14:30:20;4.40;;;1.47;;
14619;SDS011;32125;48.518;9.050;2023-04-24T14:32:47;1.60;;;1.50;;
14619;SDS011;32125;48.518;9.050;2023-04-24T14:35:22;3.00;;;1.40;;
14619;SDS011;32125;48.518;9.050;2023-04-24T14:37:48;2.57;;;1.57;;
14619;SDS011;32125;48.518;9.050;2023-04-24T14:40:14;2.10;;;1.30;;
14619;SDS011;32125;48.518;9.050;2023-04-24T14:42:40;3.17;;;1.40;;
14619;SDS011;32125;48.518;9.050;2023-04-24T14:45:06;1.63;;;1.30;;
14619;SDS011;32125;48.518;9.050;2023-04-24T14:47:33;2.60;;;1.37;;
14619;SDS011;32125;48.518;9.050;2023-04-24T14:50:00;1.40;;;1.30;;
14619;SDS011;32125;48.518;9.050;2023-04-24T14:52:26;1.37;;;1.27;;
14619;SDS011;32125;48.518;9.050;2023-04-24T14:54:52;3.07;;;1.40;;
14619;SDS011;32125;48.518;9.050;2023-04-24T14:57:18;1.40;;;1.30;;
14619;SDS011;32125;48.518;9.050;2023-04-24T14:59:44;2.10;;;1.30;;
14619;SDS011;32125;48.518;9.050;2023-04-24T15:02:10;2.07;;;1.30;;
14619;SDS011;32125;48.518;9.050;2023-04-24T15:04:36;1.93;;;1.23;;
14619;SDS011;32125;48.518;9.050;2023-04-24T15:07:04;1.47;;;1.37;;
14619;SDS011;32125;48.518;9.050;2023-04-24T15:09:30;1.80;;;1.27;;
14619;SDS011;32125;48.518;9.050;2023-04-24T15:11:57;2.17;;;1.37;;
14619;SDS011;32125;48.518;9.050;2023-04-24T15:14:23;1.40;;;1.30;;
14619;SDS011;32125;48.518;9.050;2023-04-24T15:16:50;2.20;;;1.30;;
14619;SDS011;32125;48.518;9.050;2023-04-24T15:19:16;1.30;;;1.20;;
14619;SDS011;32125;48.518;9.050;2023-04-24T15:21:42;1.40;;;1.30;;
14619;SDS011;32125;48.518;9.050;2023-04-24T15:24:09;1.53;;;1.40;;
14619;SDS011;32125;48.518;9.050;2023-04-24T15:26:38;2.10;;;1.40;;
14619;SDS011;32125;48.518;9.050;2023-04-24T15:29:04;1.37;;;1.27;;
14619;SDS011;32125;48.518;9.050;2023-04-24T15:31:32;1.47;;;1.23;;
14619;SDS011;32125;48.518;9.050;2023-04-24T15:33:58;1.33;;;1.23;;
14619;SDS011;32125;48.518;9.050;2023-04-24T15:36:24;1.40;;;1.30;;
14619;SDS011;32125;48.518;9.050;2023-04-24T15:38:50;1.37;;;1.13;;
14619;SDS011;32125;48.518;9.050;2023-04-24T15:41:16;1.40;;;1.30;;
14619;SDS011;32125;48.518;9.050;2023-04-24T15:43:42;1.93;;;1.40;;
14619;SDS011;32125;48.518;9.050;2023-04-24T15:46:08;1.93;;;1.20;;
14619;SDS011;32125;48.518;9.050;2023-04-24T15:48:36;1.77;;;1.20;;
14619;SDS011;32125;48.518;9.050;2023-04-24T15:51:05;1.10;;;1.10;;
14619;SDS011;32125;48.518;9.050;2023-04-24T15:53:31;2.20;;;1.40;;
14619;SDS011;32125;48.518;9.050;2023-04-24T15:55:57;1.37;;;1.27;;
14619;SDS011;32125;48.518;9.050;2023-04-24T15:58:23;1.43;;;1.33;;